createdAt,value
2022-08-16T00:00:44.470Z,23.94
2022-08-16T00:03:13.417Z,23.91
2022-08-16T00:05:48.509Z,23.88
2022-08-16T00:08:36.179Z,23.87
2022-08-16T00:11:06.888Z,23.81
2022-08-16T00:13:41.650Z,23.79
2022-08-16T00:17:00.718Z,23.78
2022-08-16T00:18:59.832Z,23.78
2022-08-16T00:21:29.153Z,23.69
2022-08-16T00:23:56.581Z,23.55
2022-08-16T00:26:36.452Z,23.52
2022-08-16T00:29:15.673Z,23.48
2022-08-16T00:32:01.212Z,23.49
2022-08-16T00:34:44.607Z,23.44
2022-08-16T00:37:24.682Z,23.37
2022-08-16T00:39:57.099Z,23.31
2022-08-16T00:42:30.434Z,23.23
2022-08-16T00:45:16.686Z,23.18
2022-08-16T00:47:49.465Z,23.15
2022-08-16T00:50:21.905Z,23.06
2022-08-16T00:53:10.912Z,23.02
2022-08-16T00:55:47.065Z,23.04
2022-08-16T00:58:34.658Z,23.08
2022-08-16T01:01:08.383Z,23.06
2022-08-16T01:03:41.714Z,23.04
2022-08-16T01:06:39.916Z,23.02
2022-08-16T01:09:01.641Z,22.94
2022-08-16T01:11:31.380Z,22.97
2022-08-16T01:14:10.307Z,22.99
2022-08-16T01:16:40.218Z,22.99
2022-08-16T01:19:33.740Z,23.00
2022-08-16T01:22:47.632Z,22.99
2022-08-16T01:25:15.107Z,22.93
2022-08-16T01:27:50.299Z,22.87
2022-08-16T01:30:49.687Z,22.83
2022-08-16T01:33:19.965Z,22.81
2022-08-16T01:36:02.011Z,22.74
2022-08-16T01:38:56.916Z,22.67
2022-08-16T01:41:31.283Z,22.66
2022-08-16T01:44:01.138Z,22.63
2022-08-16T01:46:40.797Z,22.58
2022-08-16T01:49:20.559Z,22.51
2022-08-16T01:51:56.168Z,22.51
2022-08-16T01:54:31.015Z,22.52
2022-08-16T01:57:00.148Z,22.47
2022-08-16T01:59:28.863Z,22.46
2022-08-16T02:01:59.701Z,22.41
2022-08-16T02:04:44.595Z,22.43
2022-08-16T02:07:18.678Z,22.40
2022-08-16T02:09:57.031Z,22.37
2022-08-16T02:12:49.855Z,22.36
2022-08-16T02:15:25.382Z,22.31
2022-08-16T02:17:59.090Z,22.29
2022-08-16T02:20:32.899Z,22.29
2022-08-16T02:23:05.859Z,22.29
2022-08-16T02:25:52.675Z,22.28
2022-08-16T02:28:24.891Z,22.27
2022-08-16T02:30:54.047Z,22.25
2022-08-16T02:33:24.766Z,22.23
2022-08-16T02:36:14.265Z,22.20
2022-08-16T02:39:00.957Z,22.18
2022-08-16T02:41:27.797Z,22.22
2022-08-16T02:43:54.619Z,22.22
2022-08-16T02:46:33.294Z,22.19
2022-08-16T02:49:02.262Z,22.13
2022-08-16T02:51:29.427Z,22.10
2022-08-16T02:53:59.193Z,22.10
2022-08-16T02:56:32.305Z,22.13
2022-08-16T02:59:00.308Z,22.06
2022-08-16T03:01:33.544Z,22.01
2022-08-16T03:04:28.981Z,22.00
2022-08-16T03:06:56.362Z,21.99
2022-08-16T03:09:28.841Z,21.98
2022-08-16T03:11:57.167Z,21.93
2022-08-16T03:14:25.339Z,21.93
2022-08-16T03:17:00.298Z,21.91
2022-08-16T03:19:47.619Z,21.90
2022-08-16T03:22:28.426Z,21.95
2022-08-16T03:25:02.891Z,21.96
2022-08-16T03:27:32.282Z,21.92
2022-08-16T03:30:17.376Z,21.91
2022-08-16T03:32:51.386Z,21.94
2022-08-16T03:35:23.830Z,21.92
2022-08-16T03:38:04.930Z,21.92
2022-08-16T03:40:51.876Z,21.90
2022-08-16T03:43:21.471Z,21.83
2022-08-16T03:45:52.694Z,21.82
2022-08-16T03:48:36.661Z,21.83
2022-08-16T03:51:12.390Z,21.81
2022-08-16T03:53:41.726Z,21.77
2022-08-16T03:56:19.609Z,21.83
2022-08-16T03:58:51.095Z,21.84
2022-08-16T04:01:23.010Z,21.86
2022-08-16T04:03:51.494Z,21.84
2022-08-16T04:06:20.710Z,21.79
2022-08-16T04:08:48.204Z,21.77
2022-08-16T04:11:16.394Z,21.80
2022-08-16T04:14:00.997Z,21.82
2022-08-16T04:16:34.476Z,21.84
2022-08-16T04:19:04.431Z,21.77
2022-08-16T04:21:34.836Z,21.79
2022-08-16T04:24:07.841Z,21.70
2022-08-16T04:26:36.304Z,21.69
2022-08-16T04:29:17.016Z,21.67
2022-08-16T04:31:56.601Z,21.64
2022-08-16T04:34:32.331Z,21.63
2022-08-16T04:37:01.015Z,21.58
2022-08-16T04:39:44.922Z,21.56
2022-08-16T04:42:16.082Z,21.67
2022-08-16T04:44:54.537Z,21.66
2022-08-16T04:47:35.469Z,21.70
2022-08-16T04:50:10.765Z,21.66
2022-08-16T04:52:39.010Z,21.71
2022-08-16T04:55:15.218Z,21.72
2022-08-16T04:57:43.616Z,21.67
2022-08-16T05:00:30.932Z,21.67
2022-08-16T05:02:58.905Z,21.62
2022-08-16T05:05:32.651Z,21.61
2022-08-16T05:08:29.870Z,21.63
2022-08-16T05:10:48.755Z,21.66
2022-08-16T05:13:17.651Z,21.69
2022-08-16T05:15:44.794Z,21.70
2022-08-16T05:18:15.784Z,21.70
2022-08-16T05:21:01.372Z,21.78
2022-08-16T05:23:31.728Z,21.84
2022-08-16T05:25:59.860Z,21.85
2022-08-16T05:28:30.961Z,21.87
2022-08-16T05:31:06.729Z,21.99
2022-08-16T05:33:34.038Z,22.09
2022-08-16T05:36:03.660Z,22.19
2022-08-16T05:38:39.006Z,22.27
2022-08-16T05:41:07.520Z,22.35
2022-08-16T05:43:43.438Z,22.40
2022-08-16T05:46:30.467Z,22.41
2022-08-16T05:49:08.576Z,22.42
2022-08-16T05:51:38.501Z,22.45
2022-08-16T05:54:09.638Z,22.50
2022-08-16T05:56:40.183Z,22.53
2022-08-16T05:59:08.198Z,22.51
2022-08-16T06:01:37.805Z,22.55
2022-08-16T06:04:13.728Z,22.59
2022-08-16T06:06:57.391Z,22.62
2022-08-16T06:09:43.444Z,22.68
2022-08-16T06:12:27.446Z,22.74
2022-08-16T06:15:04.264Z,22.76
2022-08-16T06:17:43.915Z,22.82
2022-08-16T06:20:24.088Z,22.92
2022-08-16T06:23:03.241Z,22.96
2022-08-16T06:25:36.008Z,23.00
2022-08-16T06:28:10.144Z,23.05
2022-08-16T06:30:44.073Z,23.08
2022-08-16T06:33:22.185Z,23.10
2022-08-16T06:35:55.324Z,23.18
2022-08-16T06:38:32.881Z,23.14
2022-08-16T06:41:13.744Z,23.18
2022-08-16T06:43:42.041Z,23.27
2022-08-16T06:46:32.027Z,23.28
2022-08-16T06:49:05.460Z,23.35
2022-08-16T06:51:47.980Z,23.41
2022-08-16T06:54:16.926Z,23.46
2022-08-16T06:56:44.292Z,23.50
2022-08-16T06:59:13.359Z,23.54
2022-08-16T07:01:45.193Z,23.56
2022-08-16T07:04:32.653Z,23.62
2022-08-16T07:07:03.005Z,23.67
2022-08-16T07:09:30.645Z,23.69
2022-08-16T07:12:03.200Z,23.72
2022-08-16T07:14:33.352Z,23.73
2022-08-16T07:17:01.278Z,23.82
2022-08-16T07:20:29.990Z,23.90
2022-08-16T07:22:38.410Z,23.97
2022-08-16T07:25:14.713Z,24.01
2022-08-16T07:27:44.361Z,24.04
2022-08-16T07:30:38.457Z,24.07
2022-08-16T07:33:05.823Z,24.11
2022-08-16T07:35:35.306Z,24.15
2022-08-16T07:38:05.046Z,24.16
2022-08-16T07:40:59.202Z,24.22
2022-08-16T07:43:23.721Z,24.28
2022-08-16T07:45:55.782Z,24.33
2022-08-16T07:48:24.096Z,24.39
2022-08-16T07:50:58.402Z,24.45
2022-08-16T07:53:31.223Z,24.47
2022-08-16T07:56:00.752Z,24.53
2022-08-16T07:58:34.858Z,24.60
2022-08-16T08:01:11.039Z,24.67
2022-08-16T08:03:49.001Z,24.73
2022-08-16T08:06:19.415Z,24.80
2022-08-16T08:08:51.668Z,24.85
2022-08-16T08:11:23.694Z,24.91
2022-08-16T08:13:55.828Z,24.97
2022-08-16T08:16:30.363Z,25.04
2022-08-16T08:19:02.756Z,25.13
2022-08-16T08:21:59.087Z,25.16
2022-08-16T08:24:32.330Z,25.20
2022-08-16T08:27:04.038Z,25.25
2022-08-16T08:29:37.665Z,25.27
2022-08-16T08:32:58.397Z,25.35
2022-08-16T08:35:03.123Z,25.43
2022-08-16T08:37:54.325Z,25.50
2022-08-16T08:40:24.488Z,25.51
2022-08-16T08:43:00.876Z,25.56
2022-08-16T08:45:52.964Z,25.62
2022-08-16T08:48:33.977Z,25.65
2022-08-16T08:51:10.147Z,25.72
2022-08-16T08:53:39.796Z,25.78
2022-08-16T08:56:22.610Z,25.87
2022-08-16T08:58:58.176Z,25.92
2022-08-16T09:01:36.793Z,25.99
2022-08-16T09:04:14.470Z,26.05
2022-08-16T09:06:44.541Z,26.12
2022-08-16T09:09:16.803Z,26.15
2022-08-16T09:11:50.944Z,26.16
2022-08-16T09:14:24.330Z,26.21
2022-08-16T09:17:01.128Z,26.26
2022-08-16T09:19:37.268Z,26.34
2022-08-16T09:22:20.667Z,26.39
2022-08-16T09:24:53.302Z,26.44
2022-08-16T09:27:23.527Z,26.50
2022-08-16T09:30:00.414Z,26.53
2022-08-16T09:32:31.703Z,26.56
2022-08-16T09:35:01.659Z,26.64
2022-08-16T09:37:36.543Z,26.69
2022-08-16T09:40:32.369Z,26.68
2022-08-16T09:42:56.362Z,26.77
2022-08-16T09:45:28.900Z,26.80
2022-08-16T09:47:58.360Z,26.83
2022-08-16T09:50:37.102Z,26.87
2022-08-16T09:53:15.418Z,26.93
2022-08-16T09:55:52.410Z,27.01
2022-08-16T09:58:37.741Z,27.06
2022-08-16T10:01:11.408Z,27.11
2022-08-16T10:04:02.233Z,27.12
2022-08-16T10:06:33.499Z,27.18
2022-08-16T10:09:11.234Z,27.21
2022-08-16T10:12:11.543Z,27.25
2022-08-16T10:14:46.360Z,27.36
2022-08-16T10:17:13.916Z,27.40
2022-08-16T10:19:43.366Z,27.49
2022-08-16T10:22:12.825Z,27.55
2022-08-16T10:24:56.113Z,27.59
2022-08-16T10:27:30.109Z,27.64
2022-08-16T10:30:25.055Z,27.67
2022-08-16T10:32:54.060Z,27.72
2022-08-16T10:35:20.987Z,27.71
2022-08-16T10:37:52.326Z,27.73
2022-08-16T10:40:29.066Z,27.76
2022-08-16T10:43:01.987Z,27.81
2022-08-16T10:45:37.197Z,27.88
2022-08-16T10:48:27.556Z,27.95
2022-08-16T10:50:58.669Z,28.02
2022-08-16T10:53:32.637Z,28.06
2022-08-16T10:56:55.380Z,28.09
2022-08-16T10:59:29.624Z,28.11
2022-08-16T11:02:21.876Z,28.18
2022-08-16T11:11:01.899Z,28.27
2022-08-16T11:12:54.363Z,28.23
2022-08-16T11:15:22.509Z,28.30
2022-08-16T11:18:48.878Z,28.40
2022-08-16T11:20:48.740Z,28.48
2022-08-16T11:23:17.869Z,28.54
2022-08-16T11:26:20.672Z,28.54
2022-08-16T11:29:11.863Z,28.59
2022-08-16T11:31:24.796Z,28.57
2022-08-16T11:33:52.724Z,28.64
2022-08-16T11:36:27.387Z,28.71
2022-08-16T11:38:58.864Z,28.75
2022-08-16T11:41:29.492Z,28.68
2022-08-16T11:44:00.078Z,28.77
2022-08-16T11:46:45.344Z,28.77
2022-08-16T11:49:15.150Z,28.79
2022-08-16T11:51:44.489Z,28.80
2022-08-16T11:54:20.932Z,28.83
2022-08-16T11:56:56.831Z,28.84
2022-08-16T11:59:28.890Z,28.88
2022-08-16T12:01:59.399Z,28.86
2022-08-16T12:04:27.903Z,28.93
2022-08-16T12:06:55.070Z,28.99
2022-08-16T12:09:24.732Z,29.06
2022-08-16T12:11:52.515Z,29.10
2022-08-16T12:14:23.025Z,29.19
2022-08-16T12:16:57.014Z,29.15
2022-08-16T12:19:33.814Z,29.08
2022-08-16T12:22:05.772Z,29.08
2022-08-16T12:24:47.952Z,29.16
2022-08-16T12:27:25.246Z,29.14
2022-08-16T12:29:54.733Z,29.17
2022-08-16T12:32:37.937Z,29.22
2022-08-16T12:35:19.393Z,29.25
2022-08-16T12:37:49.501Z,29.29
2022-08-16T12:40:29.899Z,29.38
2022-08-16T12:43:00.709Z,29.44
2022-08-16T12:45:37.917Z,29.46
2022-08-16T12:48:34.789Z,29.51
2022-08-16T12:51:13.575Z,29.57
2022-08-16T12:53:53.219Z,29.55
2022-08-16T12:56:26.161Z,29.56
2022-08-16T12:58:56.062Z,29.57
2022-08-16T13:01:31.023Z,29.54
2022-08-16T13:04:11.791Z,29.57
2022-08-16T13:06:48.532Z,29.60
2022-08-16T13:09:26.577Z,29.61
2022-08-16T13:12:05.637Z,29.69
2022-08-16T13:14:40.171Z,29.69
2022-08-16T13:17:18.722Z,29.69
2022-08-16T13:25:09.513Z,29.75
2022-08-16T13:28:02.927Z,29.77
2022-08-16T13:30:35.854Z,29.81
2022-08-16T13:33:10.765Z,29.83
2022-08-16T13:35:44.585Z,29.88
2022-08-16T13:38:24.266Z,29.92
2022-08-16T13:40:56.596Z,29.96
2022-08-16T13:43:27.215Z,29.97
2022-08-16T13:45:56.860Z,30.02
2022-08-16T13:48:43.090Z,30.06
2022-08-16T13:51:19.427Z,30.10
2022-08-16T13:53:59.228Z,30.12
2022-08-16T13:56:36.808Z,30.13
2022-08-16T13:59:16.597Z,30.15
2022-08-16T14:01:55.422Z,30.20
2022-08-16T14:04:35.543Z,30.23
2022-08-16T14:07:07.765Z,30.24
2022-08-16T14:09:36.465Z,30.23
2022-08-16T14:12:17.809Z,30.25
2022-08-16T14:14:46.740Z,30.25
2022-08-16T14:17:16.585Z,30.20
2022-08-16T14:19:46.040Z,30.20
2022-08-16T14:22:31.518Z,30.21
2022-08-16T14:25:03.310Z,30.23
2022-08-16T14:27:34.535Z,30.23
2022-08-16T14:30:09.839Z,30.24
2022-08-16T14:32:37.381Z,30.28
2022-08-16T14:35:15.084Z,30.29
2022-08-16T14:37:43.140Z,30.32
2022-08-16T14:40:15.254Z,30.31
2022-08-16T14:42:46.464Z,30.33
2022-08-16T14:45:21.216Z,30.33
2022-08-16T14:47:49.709Z,30.29
2022-08-16T14:50:21.628Z,30.25
2022-08-16T14:52:59.578Z,30.18
2022-08-16T14:55:32.160Z,30.17
2022-08-16T14:58:00.011Z,30.17
2022-08-16T15:00:34.060Z,30.13
2022-08-16T15:03:09.712Z,30.09
2022-08-16T15:05:39.805Z,30.04
2022-08-16T15:08:07.672Z,30.00
2022-08-16T15:10:37.410Z,29.97
2022-08-16T15:13:11.147Z,29.96
2022-08-16T15:15:40.501Z,29.97
2022-08-16T15:18:11.727Z,30.04
2022-08-16T15:20:41.463Z,30.12
2022-08-16T15:23:10.720Z,30.23
2022-08-16T15:25:42.302Z,30.31
2022-08-16T15:28:31.236Z,30.38
2022-08-16T15:31:03.798Z,30.47
2022-08-16T15:33:35.299Z,30.54
2022-08-16T15:36:04.812Z,30.60
2022-08-16T15:39:02.734Z,30.63
2022-08-16T15:42:01.170Z,30.64
2022-08-16T15:44:42.707Z,30.69
2022-08-16T15:47:18.541Z,30.73
2022-08-16T15:49:53.097Z,30.74
2022-08-16T15:52:42.614Z,30.76
2022-08-16T15:55:23.649Z,30.79
2022-08-16T15:57:51.624Z,30.78
2022-08-16T16:00:20.710Z,30.95
2022-08-16T16:02:49.487Z,31.37
2022-08-16T16:05:18.928Z,31.83
2022-08-16T16:07:56.290Z,32.24
2022-08-16T16:10:29.509Z,32.66
2022-08-16T16:13:03.752Z,32.96
2022-08-16T16:15:45.772Z,33.19
2022-08-16T16:18:14.666Z,33.36
2022-08-16T16:20:53.777Z,33.53
2022-08-16T16:23:32.465Z,33.68
2022-08-16T16:26:05.762Z,33.71
2022-08-16T16:29:06.497Z,33.41
2022-08-16T16:31:22.000Z,33.03
2022-08-16T16:33:55.749Z,32.66
2022-08-16T16:36:29.304Z,32.39
2022-08-16T16:38:56.692Z,32.13
2022-08-16T16:41:28.817Z,31.94
2022-08-16T16:43:59.429Z,31.73
2022-08-16T16:46:41.273Z,31.57
2022-08-16T16:49:14.065Z,31.42
2022-08-16T16:51:47.153Z,31.39
2022-08-16T16:54:27.734Z,31.33
2022-08-16T16:56:58.229Z,31.30
2022-08-16T16:59:28.410Z,31.32
2022-08-16T17:02:38.327Z,31.29
2022-08-16T17:04:47.577Z,31.41
2022-08-16T17:07:15.113Z,31.24
2022-08-16T17:09:42.059Z,31.12
2022-08-16T17:12:14.522Z,30.99
2022-08-16T17:14:54.987Z,30.86
2022-08-16T17:17:23.115Z,30.75
2022-08-16T17:19:50.179Z,30.65
2022-08-16T17:22:22.134Z,30.57
2022-08-16T17:24:52.817Z,30.51
2022-08-16T17:27:33.913Z,30.41
2022-08-16T17:30:15.639Z,30.35
2022-08-16T17:32:50.758Z,30.30
2022-08-16T17:35:34.212Z,30.15
2022-08-16T17:38:09.358Z,30.04
2022-08-16T17:40:57.833Z,30.07
2022-08-16T17:43:37.241Z,30.06
2022-08-16T17:46:51.556Z,30.03
2022-08-16T17:49:05.272Z,30.02
2022-08-16T17:51:34.173Z,30.01
2022-08-16T17:54:03.472Z,29.99
2022-08-16T17:56:30.615Z,29.95
2022-08-16T17:58:57.653Z,29.90
2022-08-16T18:01:27.834Z,29.87
2022-08-16T18:04:06.615Z,29.84
2022-08-16T18:06:37.150Z,29.82
2022-08-16T18:09:04.885Z,29.78
2022-08-16T18:11:40.969Z,29.74
2022-08-16T18:14:11.235Z,29.71
2022-08-16T18:16:38.848Z,29.67
2022-08-16T18:19:05.993Z,29.61
2022-08-16T18:21:51.713Z,29.56
2022-08-16T18:24:19.429Z,29.54
2022-08-16T18:26:47.195Z,29.53
2022-08-16T18:29:14.174Z,29.52
2022-08-16T18:31:42.392Z,29.47
2022-08-16T18:34:10.256Z,29.45
2022-08-16T18:36:37.241Z,29.46
2022-08-16T18:39:04.307Z,29.45
2022-08-16T18:41:33.786Z,29.44
2022-08-16T18:44:24.808Z,29.40
2022-08-16T18:46:50.798Z,29.40
2022-08-16T18:49:19.639Z,29.37
2022-08-16T18:51:48.227Z,29.34
2022-08-16T18:54:19.960Z,29.33
2022-08-16T18:56:55.385Z,29.30
2022-08-16T18:59:30.537Z,29.28
2022-08-16T19:02:05.027Z,29.26
2022-08-16T19:04:56.721Z,29.22
2022-08-16T19:07:30.419Z,29.20
2022-08-16T19:10:02.304Z,29.16
2022-08-16T19:12:37.740Z,29.12
2022-08-16T19:15:20.224Z,29.12
2022-08-16T19:17:48.030Z,29.08
2022-08-16T19:20:20.273Z,29.05
2022-08-16T19:23:04.705Z,28.99
2022-08-16T19:25:49.127Z,28.94
2022-08-16T19:28:49.360Z,28.89
2022-08-16T19:31:31.175Z,28.87
2022-08-16T19:33:59.841Z,28.81
2022-08-16T19:36:35.346Z,28.80
2022-08-16T19:39:15.018Z,28.75
2022-08-16T19:41:53.146Z,28.71
2022-08-16T19:44:23.337Z,28.70
2022-08-16T19:46:50.898Z,28.67
2022-08-16T19:49:21.667Z,28.67
2022-08-16T19:51:48.862Z,28.65
2022-08-16T19:54:17.556Z,28.66
2022-08-16T19:56:44.778Z,28.64
2022-08-16T19:59:21.005Z,28.65
2022-08-16T20:01:55.306Z,28.63
2022-08-16T20:04:23.628Z,28.61
2022-08-16T20:06:53.249Z,28.61
2022-08-16T20:09:24.706Z,28.60
2022-08-16T20:11:54.392Z,28.58
2022-08-16T20:14:25.246Z,28.57
2022-08-16T20:16:57.494Z,28.57
2022-08-16T20:19:27.767Z,28.57
2022-08-16T20:21:56.558Z,28.55
2022-08-16T20:24:39.672Z,28.51
2022-08-16T20:27:09.817Z,28.49
2022-08-16T20:29:40.978Z,28.45
2022-08-16T20:32:12.132Z,28.44
2022-08-16T20:34:44.366Z,28.41
2022-08-16T20:37:12.815Z,28.39
2022-08-16T20:39:40.590Z,28.39
2022-08-16T20:42:08.091Z,28.38
2022-08-16T20:44:34.953Z,28.37
2022-08-16T20:47:01.785Z,28.35
2022-08-16T20:49:29.030Z,28.33
2022-08-16T20:51:59.351Z,28.32
2022-08-16T20:54:29.431Z,28.31
2022-08-16T20:56:56.947Z,28.26
2022-08-16T20:59:24.010Z,28.23
2022-08-16T21:01:51.090Z,28.19
2022-08-16T21:04:22.631Z,28.15
2022-08-16T21:06:53.622Z,28.10
2022-08-16T21:09:28.854Z,28.08
2022-08-16T21:11:59.073Z,28.07
2022-08-16T21:14:27.841Z,28.05
2022-08-16T21:16:55.927Z,28.04
2022-08-16T21:19:23.103Z,28.01
2022-08-16T21:21:50.246Z,27.99
2022-08-16T21:24:17.339Z,27.98
2022-08-16T21:26:55.175Z,27.96
2022-08-16T21:29:28.469Z,27.96
2022-08-16T21:32:15.134Z,27.93
2022-08-16T21:34:43.259Z,27.88
2022-08-16T21:37:11.722Z,27.85
2022-08-16T21:39:42.475Z,27.81
2022-08-16T21:42:17.163Z,27.79
2022-08-16T21:44:45.037Z,27.78
2022-08-16T21:47:12.432Z,27.77
2022-08-16T21:49:40.113Z,27.74
2022-08-16T21:52:09.494Z,27.71
2022-08-16T21:54:52.115Z,27.68
2022-08-16T21:57:23.150Z,27.64
2022-08-16T21:59:52.317Z,27.61
2022-08-16T22:02:22.978Z,27.57
2022-08-16T22:04:50.386Z,27.55
2022-08-16T22:07:18.270Z,27.51
2022-08-16T22:09:48.623Z,27.47
2022-08-16T22:12:27.416Z,27.43
2022-08-16T22:14:54.939Z,27.36
2022-08-16T22:17:21.847Z,27.22
2022-08-16T22:19:48.769Z,27.28
2022-08-16T22:22:15.819Z,27.27
2022-08-16T22:24:42.631Z,27.23
2022-08-16T22:27:09.633Z,27.21
2022-08-16T22:29:38.237Z,27.19
2022-08-16T22:32:09.332Z,27.11
2022-08-16T22:34:36.151Z,27.08
2022-08-16T22:37:03.302Z,27.07
2022-08-16T22:39:30.311Z,27.08
2022-08-16T22:41:57.210Z,27.07
2022-08-16T22:44:24.693Z,27.04
2022-08-16T22:46:51.578Z,27.05
2022-08-16T22:49:18.865Z,26.87
2022-08-16T22:51:46.400Z,26.81
2022-08-16T22:54:43.775Z,26.79
2022-08-16T22:57:00.682Z,26.77
2022-08-16T22:59:30.331Z,26.78
2022-08-16T23:01:57.997Z,26.75
2022-08-16T23:04:25.524Z,26.71
2022-08-16T23:06:52.680Z,26.65
2022-08-16T23:09:19.677Z,26.49
2022-08-16T23:11:46.757Z,26.40
2022-08-16T23:14:13.762Z,26.37
2022-08-16T23:16:40.573Z,26.32
2022-08-16T23:19:13.241Z,26.32
2022-08-16T23:21:44.624Z,26.28
2022-08-16T23:24:13.263Z,26.19
2022-08-16T23:26:45.900Z,26.16
2022-08-16T23:29:26.278Z,26.19
2022-08-16T23:32:10.857Z,26.08
2022-08-16T23:34:38.420Z,26.03
2022-08-16T23:37:06.530Z,26.10
2022-08-16T23:39:33.653Z,26.11
2022-08-16T23:42:01.293Z,26.09
2022-08-16T23:44:42.379Z,26.06
2022-08-16T23:47:15.046Z,26.05
2022-08-16T23:49:59.556Z,26.02
2022-08-16T23:52:42.142Z,25.98
2022-08-16T23:55:16.348Z,25.97
2022-08-16T23:57:45.107Z,25.94
